createdAt,value
2023-04-18T00:01:44.556Z,7.41
2023-04-18T00:04:13.616Z,7.06
2023-04-18T00:06:40.905Z,7.20
2023-04-18T00:09:07.674Z,6.74
2023-04-18T00:11:34.899Z,7.28
2023-04-18T00:14:03.314Z,6.69
2023-04-18T00:16:30.213Z,7.58
2023-04-18T00:18:57.461Z,7.66
2023-04-18T00:21:25.634Z,7.41
2023-04-18T00:23:52.516Z,7.82
2023-04-18T00:26:19.342Z,7.88
2023-04-18T00:28:47.892Z,7.91
2023-04-18T00:31:14.613Z,7.89
2023-04-18T00:33:41.419Z,7.71
2023-04-18T00:36:08.183Z,7.88
2023-04-18T00:38:35.691Z,7.65
2023-04-18T00:41:02.368Z,7.67
2023-04-18T00:43:28.993Z,7.27
2023-04-18T00:45:57.188Z,7.69
2023-04-18T00:48:24.579Z,7.68
2023-04-18T00:50:51.225Z,7.24
2023-04-18T00:53:17.878Z,7.53
2023-04-18T00:55:44.682Z,7.27
2023-04-18T00:58:12.066Z,7.09
2023-04-18T01:00:38.704Z,7.07
2023-04-18T01:03:06.741Z,6.96
2023-04-18T01:05:35.145Z,6.81
2023-04-18T01:08:04.094Z,6.47
2023-04-18T01:10:35.851Z,6.29
2023-04-18T01:13:16.563Z,6.97
2023-04-18T01:15:44.954Z,6.95
2023-04-18T01:18:13.195Z,6.41
2023-04-18T01:20:42.471Z,6.47
2023-04-18T01:23:10.596Z,5.71
2023-04-18T01:25:37.403Z,5.87
2023-04-18T01:28:04.652Z,5.74
2023-04-18T01:30:31.535Z,5.92
2023-04-18T01:32:58.628Z,4.80
2023-04-18T01:35:27.038Z,6.32
2023-04-18T01:37:57.188Z,5.68
2023-04-18T01:40:24.716Z,5.59
2023-04-18T01:42:51.643Z,6.08
2023-04-18T01:45:20.036Z,6.64
2023-04-18T01:47:47.011Z,6.65
2023-04-18T01:50:14.154Z,6.54
2023-04-18T01:52:42.765Z,6.56
2023-04-18T01:55:09.954Z,6.41
2023-04-18T01:57:36.787Z,6.64
2023-04-18T02:00:06.158Z,6.72
2023-04-18T02:02:41.558Z,6.77
2023-04-18T02:05:09.170Z,6.77
2023-04-18T02:07:40.251Z,6.71
2023-04-18T02:10:07.869Z,6.40
2023-04-18T02:12:34.499Z,6.52
2023-04-18T02:15:01.355Z,6.27
2023-04-18T02:17:28.535Z,5.60
2023-04-18T02:19:55.226Z,6.51
2023-04-18T02:22:21.960Z,6.18
2023-04-18T02:24:48.614Z,6.59
2023-04-18T02:27:15.291Z,6.53
2023-04-18T02:29:41.987Z,5.47
2023-04-18T02:32:09.165Z,6.44
2023-04-18T02:34:36.953Z,6.51
2023-04-18T02:37:04.822Z,6.57
2023-04-18T02:39:32.562Z,6.55
2023-04-18T02:41:59.480Z,6.55
2023-04-18T02:44:26.402Z,6.24
2023-04-18T02:46:53.321Z,6.07
2023-04-18T02:49:20.293Z,6.00
2023-04-18T02:51:48.126Z,5.84
2023-04-18T02:54:16.871Z,6.13
2023-04-18T02:56:58.623Z,6.15
2023-04-18T02:59:36.160Z,6.16
2023-04-18T03:02:29.593Z,6.14
2023-04-18T03:05:02.429Z,6.19
2023-04-18T03:07:31.078Z,6.06
2023-04-18T03:10:00.006Z,5.49
2023-04-18T03:12:31.754Z,5.58
2023-04-18T03:14:59.643Z,5.53
2023-04-18T03:17:28.171Z,5.63
2023-04-18T03:19:55.180Z,5.64
2023-04-18T03:22:23.375Z,5.55
2023-04-18T03:24:55.396Z,4.49
2023-04-18T03:27:29.913Z,4.84
2023-04-18T03:29:57.100Z,4.28
2023-04-18T03:32:24.475Z,4.63
2023-04-18T03:34:51.676Z,4.86
2023-04-18T03:37:19.080Z,4.79
2023-04-18T03:39:50.769Z,4.77
2023-04-18T03:42:17.974Z,4.81
2023-04-18T03:44:44.948Z,4.95
2023-04-18T03:47:12.306Z,4.79
2023-04-18T03:49:41.886Z,5.22
2023-04-18T03:52:08.903Z,5.07
2023-04-18T03:54:35.776Z,5.02
2023-04-18T03:57:04.238Z,4.30
2023-04-18T03:59:32.673Z,4.82
2023-04-18T04:02:00.326Z,4.76
2023-04-18T04:04:27.845Z,4.69
2023-04-18T04:06:56.727Z,4.44
2023-04-18T04:09:23.619Z,4.65
2023-04-18T04:11:50.763Z,4.74
2023-04-18T04:14:17.674Z,4.86
2023-04-18T04:16:46.363Z,4.94
2023-04-18T04:19:16.255Z,4.89
2023-04-18T04:21:51.382Z,4.96
2023-04-18T04:24:18.732Z,4.96
2023-04-18T04:26:48.823Z,5.13
2023-04-18T04:29:19.709Z,5.21
2023-04-18T04:31:48.030Z,5.26
2023-04-18T04:34:22.816Z,5.36
2023-04-18T04:36:51.233Z,4.87
2023-04-18T04:39:18.761Z,5.45
2023-04-18T04:42:09.735Z,5.43
2023-04-18T04:44:46.678Z,5.42
2023-04-18T04:47:15.372Z,5.33
2023-04-18T04:49:42.249Z,4.95
2023-04-18T04:52:09.908Z,5.26
2023-04-18T04:54:36.829Z,5.56
2023-04-18T04:57:06.049Z,5.30
2023-04-18T04:59:32.986Z,3.64
2023-04-18T05:02:01.220Z,5.52
2023-04-18T05:04:28.245Z,5.54
2023-04-18T05:06:57.014Z,5.59
2023-04-18T05:09:24.111Z,5.28
2023-04-18T05:11:50.993Z,5.52
2023-04-18T05:14:18.022Z,5.42
2023-04-18T05:16:45.122Z,5.55
2023-04-18T05:19:12.099Z,5.66
2023-04-18T05:21:38.982Z,5.75
2023-04-18T05:24:05.887Z,5.82
2023-04-18T05:26:32.749Z,5.57
2023-04-18T05:28:59.867Z,5.97
2023-04-18T05:31:26.901Z,6.01
2023-04-18T05:33:53.901Z,6.01
2023-04-18T05:36:20.850Z,5.95
2023-04-18T05:38:47.790Z,5.93
2023-04-18T05:41:14.622Z,6.02
2023-04-18T05:43:43.019Z,6.14
2023-04-18T05:46:13.318Z,5.45
2023-04-18T05:48:40.183Z,6.21
2023-04-18T05:51:07.194Z,5.28
2023-04-18T05:53:34.344Z,5.54
2023-04-18T05:56:01.464Z,6.17
2023-04-18T05:58:28.970Z,6.33
2023-04-18T06:00:56.055Z,6.42
2023-04-18T06:03:23.069Z,6.50
2023-04-18T06:05:50.365Z,6.59
2023-04-18T06:08:17.215Z,6.21
2023-04-18T06:10:44.104Z,6.30
2023-04-18T06:13:11.019Z,6.74
2023-04-18T06:15:38.043Z,6.86
2023-04-18T06:18:06.424Z,6.08
2023-04-18T06:20:33.414Z,6.42
2023-04-18T06:23:00.271Z,6.60
2023-04-18T06:25:29.942Z,7.18
2023-04-18T06:27:56.915Z,7.24
2023-04-18T06:30:23.912Z,7.30
2023-04-18T06:32:50.874Z,7.38
2023-04-18T06:35:17.995Z,6.80
2023-04-18T06:37:45.491Z,6.82
2023-04-18T06:40:12.648Z,7.54
2023-04-18T06:42:39.651Z,6.81
2023-04-18T06:45:07.216Z,7.66
2023-04-18T06:47:34.211Z,7.73
2023-04-18T06:50:01.153Z,7.54
2023-04-18T06:52:28.018Z,7.80
2023-04-18T06:54:54.907Z,7.82
2023-04-18T06:57:21.912Z,5.66
2023-04-18T06:59:48.745Z,7.83
2023-04-18T07:02:15.782Z,7.83
2023-04-18T07:04:42.809Z,7.86
2023-04-18T07:07:09.919Z,7.91
2023-04-18T07:09:36.713Z,7.86
2023-04-18T07:12:03.747Z,7.81
2023-04-18T07:14:32.892Z,7.29
2023-04-18T07:17:01.727Z,7.79
2023-04-18T07:19:28.809Z,8.07
2023-04-18T07:21:56.086Z,7.94
2023-04-18T07:24:25.811Z,8.16
2023-04-18T07:26:54.927Z,7.82
2023-04-18T07:29:22.272Z,8.22
2023-04-18T07:31:49.469Z,8.30
2023-04-18T07:34:16.573Z,8.00
2023-04-18T07:36:43.553Z,8.26
2023-04-18T07:39:11.099Z,7.96
2023-04-18T07:41:38.002Z,8.41
2023-04-18T07:44:05.195Z,8.45
2023-04-18T07:46:32.572Z,8.37
2023-04-18T07:48:59.743Z,8.70
2023-04-18T07:51:31.407Z,8.67
2023-04-18T07:53:59.045Z,7.67
2023-04-18T07:56:27.020Z,8.69
2023-04-18T07:58:54.489Z,8.73
2023-04-18T08:01:24.259Z,8.78
2023-04-18T08:03:52.573Z,8.26
2023-04-18T08:06:19.452Z,8.91
2023-04-18T08:08:46.500Z,8.77
2023-04-18T08:11:13.379Z,8.73
2023-04-18T08:13:40.373Z,8.93
2023-04-18T08:16:07.339Z,8.80
2023-04-18T08:18:34.294Z,9.04
2023-04-18T08:21:01.132Z,9.07
2023-04-18T08:23:27.995Z,9.11
2023-04-18T08:25:54.916Z,9.13
2023-04-18T08:28:21.939Z,9.21
2023-04-18T08:30:49.248Z,9.30
2023-04-18T08:33:16.413Z,8.54
2023-04-18T08:35:43.520Z,9.40
2023-04-18T08:38:10.558Z,8.72
2023-04-18T08:40:38.652Z,9.37
2023-04-18T08:43:09.467Z,9.36
2023-04-18T08:45:37.038Z,9.43
2023-04-18T08:48:04.140Z,9.42
2023-04-18T08:50:31.960Z,9.48
2023-04-18T08:53:00.954Z,9.26
2023-04-18T08:55:27.944Z,9.54
2023-04-18T08:57:55.667Z,8.85
2023-04-18T09:00:23.758Z,9.20
2023-04-18T09:02:55.140Z,9.52
2023-04-18T09:05:23.669Z,9.54
2023-04-18T09:07:53.000Z,9.28
2023-04-18T09:10:34.195Z,9.47
2023-04-18T09:13:03.273Z,9.43
2023-04-18T09:15:30.799Z,9.70
2023-04-18T09:18:02.292Z,9.72
2023-04-18T09:20:43.904Z,9.59
2023-04-18T09:23:14.644Z,9.70
2023-04-18T09:25:44.247Z,9.77
2023-04-18T09:28:27.049Z,9.63
2023-04-18T09:30:56.190Z,9.37
2023-04-18T09:33:28.405Z,9.93
2023-04-18T09:35:56.491Z,9.89
2023-04-18T09:38:41.915Z,9.62
2023-04-18T09:41:12.470Z,9.70
2023-04-18T09:43:39.372Z,9.92
2023-04-18T09:46:07.598Z,9.99
2023-04-18T09:48:34.368Z,9.98
2023-04-18T09:51:09.299Z,10.10
2023-04-18T09:53:39.989Z,10.21
2023-04-18T09:56:12.879Z,10.18
2023-04-18T09:58:42.280Z,10.22
2023-04-18T10:01:09.306Z,9.48
2023-04-18T10:03:44.742Z,10.36
2023-04-18T10:06:12.350Z,10.23
2023-04-18T10:08:40.026Z,10.48
2023-04-18T10:11:06.718Z,10.44
2023-04-18T10:13:36.129Z,10.20
2023-04-18T10:16:03.233Z,10.63
2023-04-18T10:18:29.920Z,10.42
2023-04-18T10:21:04.043Z,8.93
2023-04-18T10:23:49.212Z,10.68
2023-04-18T10:26:16.299Z,9.75
2023-04-18T10:28:48.917Z,10.55
2023-04-18T10:31:16.885Z,10.53
2023-04-18T10:34:03.884Z,10.43
2023-04-18T10:36:33.044Z,10.08
2023-04-18T10:39:02.999Z,10.65
2023-04-18T10:41:31.406Z,10.70
2023-04-18T10:44:10.164Z,10.64
2023-04-18T10:46:41.876Z,9.80
2023-04-18T10:49:28.427Z,10.14
2023-04-18T10:52:00.717Z,10.81
2023-04-18T10:54:49.466Z,10.68
2023-04-18T10:57:16.399Z,8.83
2023-04-18T10:59:47.315Z,11.06
2023-04-18T11:02:25.260Z,11.35
2023-04-18T11:04:54.132Z,11.18
2023-04-18T11:07:39.068Z,10.76
2023-04-18T11:10:07.964Z,10.90
2023-04-18T11:12:36.904Z,10.78
2023-04-18T11:15:11.227Z,11.25
2023-04-18T11:17:42.259Z,10.26
2023-04-18T11:20:11.010Z,11.47
2023-04-18T11:22:50.828Z,11.38
2023-04-18T11:25:19.200Z,11.39
2023-04-18T11:27:49.888Z,11.73
2023-04-18T11:30:16.678Z,11.03
2023-04-18T11:32:43.876Z,10.85
2023-04-18T11:35:12.874Z,12.00
2023-04-18T11:37:41.404Z,11.89
2023-04-18T11:40:09.935Z,11.90
2023-04-18T11:42:38.967Z,11.81
2023-04-18T11:45:17.387Z,12.18
2023-04-18T11:47:46.753Z,11.64
2023-04-18T11:50:14.161Z,12.29
2023-04-18T11:52:42.643Z,12.25
2023-04-18T11:55:24.002Z,12.11
2023-04-18T11:57:58.015Z,12.27
2023-04-18T12:00:38.803Z,11.19
2023-04-18T12:03:16.365Z,11.95
2023-04-18T12:05:43.543Z,10.89
2023-04-18T12:08:13.245Z,11.74
2023-04-18T12:10:46.899Z,12.10
2023-04-18T12:13:14.050Z,11.70
2023-04-18T12:15:44.389Z,12.55
2023-04-18T12:18:14.193Z,12.63
2023-04-18T12:20:52.596Z,12.57
2023-04-18T12:23:32.838Z,11.61
2023-04-18T12:26:07.977Z,10.72
2023-04-18T12:28:35.649Z,12.50
2023-04-18T12:31:03.090Z,12.09
2023-04-18T12:33:30.566Z,12.00
2023-04-18T12:35:57.498Z,10.86
2023-04-18T12:38:24.275Z,11.02
2023-04-18T12:40:52.085Z,10.05
2023-04-18T12:43:20.066Z,9.22
2023-04-18T12:45:47.367Z,12.37
2023-04-18T12:48:14.210Z,12.62
2023-04-18T12:50:41.177Z,11.77
2023-04-18T12:53:07.924Z,6.15
2023-04-18T12:55:34.738Z,12.62
2023-04-18T12:58:01.505Z,12.65
2023-04-18T13:00:31.479Z,10.04
2023-04-18T13:02:59.007Z,12.60
2023-04-18T13:05:31.659Z,12.57
2023-04-18T13:08:15.260Z,9.10
2023-04-18T13:10:43.763Z,7.30
2023-04-18T13:13:10.802Z,11.32
2023-04-18T13:15:37.676Z,8.37
2023-04-18T13:18:06.364Z,7.18
2023-04-18T13:20:34.360Z,7.48
2023-04-18T13:23:03.060Z,12.05
2023-04-18T13:25:30.088Z,11.98
2023-04-18T13:27:58.657Z,10.68
2023-04-18T13:30:25.652Z,8.37
2023-04-18T13:32:52.537Z,8.57
2023-04-18T13:35:22.860Z,10.60
2023-04-18T13:37:49.787Z,8.06
2023-04-18T13:40:16.885Z,12.80
2023-04-18T13:42:43.534Z,12.86
2023-04-18T13:45:11.027Z,8.92
2023-04-18T13:47:38.426Z,8.57
2023-04-18T13:50:07.193Z,8.75
2023-04-18T13:52:33.904Z,11.98
2023-04-18T13:55:01.036Z,8.99
2023-04-18T13:57:28.437Z,8.39
2023-04-18T13:59:55.125Z,7.86
2023-04-18T14:02:22.343Z,11.10
2023-04-18T14:04:49.496Z,6.38
2023-04-18T14:07:16.612Z,13.15
2023-04-18T14:09:43.342Z,12.40
2023-04-18T14:12:10.638Z,13.02
2023-04-18T14:14:37.332Z,13.17
2023-04-18T14:17:03.981Z,12.25
2023-04-18T14:19:31.108Z,12.93
2023-04-18T14:22:00.272Z,7.44
2023-04-18T14:24:27.076Z,2.38
2023-04-18T14:26:53.746Z,7.17
2023-04-18T14:29:20.407Z,13.14
2023-04-18T14:31:47.450Z,11.59
2023-04-18T14:34:14.351Z,13.21
2023-04-18T14:36:41.159Z,12.69
2023-04-18T14:39:08.411Z,11.78
2023-04-18T14:41:35.372Z,13.03
2023-04-18T14:44:04.312Z,12.65
2023-04-18T14:46:31.598Z,11.77
2023-04-18T14:48:58.382Z,13.44
2023-04-18T14:51:26.283Z,8.17
2023-04-18T14:53:53.094Z,12.01
2023-04-18T14:56:21.744Z,13.46
2023-04-18T14:58:48.510Z,13.26
2023-04-18T15:01:17.553Z,12.78
2023-04-18T15:03:44.743Z,12.56
2023-04-18T15:06:12.242Z,13.02
2023-04-18T15:08:39.278Z,9.06
2023-04-18T15:11:07.497Z,8.53
2023-04-18T15:13:34.466Z,7.71
2023-04-18T15:16:01.438Z,13.25
2023-04-18T15:18:28.319Z,7.47
2023-04-18T15:20:56.940Z,6.12
2023-04-18T15:23:23.791Z,7.22
2023-04-18T15:25:50.616Z,13.41
2023-04-18T15:28:18.680Z,8.41
2023-04-18T15:30:45.883Z,6.40
2023-04-18T15:33:13.260Z,12.77
2023-04-18T15:35:41.357Z,12.82
2023-04-18T15:38:08.091Z,13.06
2023-04-18T15:40:36.174Z,13.46
2023-04-18T15:43:02.983Z,12.85
2023-04-18T15:45:30.200Z,12.87
2023-04-18T15:47:56.852Z,13.14
2023-04-18T15:50:24.090Z,12.11
2023-04-18T15:52:50.855Z,12.47
2023-04-18T15:55:17.781Z,13.12
2023-04-18T15:57:44.884Z,13.37
2023-04-18T16:00:16.186Z,13.21
2023-04-18T16:02:44.491Z,13.41
2023-04-18T16:05:15.362Z,12.21
2023-04-18T16:07:42.961Z,13.22
2023-04-18T16:10:11.162Z,12.82
2023-04-18T16:12:39.397Z,13.39
2023-04-18T16:15:08.460Z,13.33
2023-04-18T16:17:38.921Z,13.04
2023-04-18T16:20:08.160Z,13.33
2023-04-18T16:22:35.020Z,13.38
2023-04-18T16:25:01.965Z,13.35
2023-04-18T16:27:28.695Z,13.36
2023-04-18T16:29:55.846Z,12.53
2023-04-18T16:32:22.550Z,12.87
2023-04-18T16:34:49.884Z,13.33
2023-04-18T16:37:16.603Z,12.51
2023-04-18T16:39:43.491Z,13.32
2023-04-18T16:42:10.211Z,12.67
2023-04-18T16:44:36.904Z,13.32
2023-04-18T16:47:05.086Z,12.44
2023-04-18T16:49:32.000Z,12.58
2023-04-18T16:51:58.695Z,13.03
2023-04-18T16:54:25.392Z,12.49
2023-04-18T16:56:52.022Z,13.35
2023-04-18T16:59:18.759Z,13.32
2023-04-18T17:01:45.544Z,12.59
2023-04-18T17:04:13.143Z,12.60
2023-04-18T17:06:42.384Z,12.75
2023-04-18T17:09:13.981Z,12.97
2023-04-18T17:11:41.755Z,11.16
2023-04-18T17:14:09.302Z,13.32
2023-04-18T17:16:40.891Z,7.68
2023-04-18T17:19:08.584Z,7.36
2023-04-18T17:21:36.667Z,7.84
2023-04-18T17:24:06.617Z,13.22
2023-04-18T17:26:35.419Z,12.46
2023-04-18T17:29:04.070Z,12.86
2023-04-18T17:31:31.741Z,13.15
2023-04-18T17:33:59.133Z,13.14
2023-04-18T17:36:26.296Z,13.02
2023-04-18T17:38:53.017Z,12.23
2023-04-18T17:41:23.773Z,13.05
2023-04-18T17:43:53.485Z,12.67
2023-04-18T17:46:21.177Z,11.74
2023-04-18T17:48:49.076Z,10.33
2023-04-18T17:51:16.555Z,5.84
2023-04-18T17:53:43.630Z,9.20
2023-04-18T17:56:10.576Z,10.64
2023-04-18T17:58:37.401Z,12.82
2023-04-18T18:01:04.822Z,11.13
2023-04-18T18:03:31.621Z,12.31
2023-04-18T18:05:58.560Z,11.79
2023-04-18T18:08:25.736Z,12.54
2023-04-18T18:10:52.489Z,11.51
2023-04-18T18:13:19.295Z,11.72
2023-04-18T18:15:46.060Z,11.97
2023-04-18T18:18:26.471Z,12.29
2023-04-18T18:20:53.096Z,12.03
2023-04-18T18:23:19.741Z,11.56
2023-04-18T18:25:46.454Z,11.78
2023-04-18T18:28:13.318Z,12.15
2023-04-18T18:30:40.098Z,12.13
2023-04-18T18:33:06.827Z,12.08
2023-04-18T18:35:33.482Z,12.02
2023-04-18T18:38:00.151Z,11.17
2023-04-18T18:40:27.041Z,12.01
2023-04-18T18:42:54.817Z,11.95
2023-04-18T18:45:21.637Z,10.98
2023-04-18T18:47:48.645Z,11.87
2023-04-18T18:50:15.637Z,11.84
2023-04-18T18:52:43.195Z,11.30
2023-04-18T18:55:11.216Z,10.65
2023-04-18T18:57:38.059Z,9.81
2023-04-18T19:00:09.674Z,11.43
2023-04-18T19:02:37.223Z,11.40
2023-04-18T19:05:04.452Z,11.05
2023-04-18T19:07:31.160Z,10.88
2023-04-18T19:10:00.466Z,9.90
2023-04-18T19:12:28.215Z,10.92
2023-04-18T19:14:54.873Z,10.36
2023-04-18T19:17:24.780Z,10.44
2023-04-18T19:19:52.984Z,10.12
2023-04-18T19:22:19.676Z,9.66
2023-04-18T19:24:46.324Z,9.93
2023-04-18T19:27:13.209Z,7.09
2023-04-18T19:29:39.867Z,9.43
2023-04-18T19:32:06.556Z,9.59
2023-04-18T19:34:33.289Z,9.98
2023-04-18T19:37:01.212Z,9.19
2023-04-18T19:39:28.248Z,9.90
2023-04-18T19:41:55.074Z,8.84
2023-04-18T19:44:21.939Z,9.04
2023-04-18T19:46:48.619Z,9.30
2023-04-18T19:49:15.407Z,9.17
2023-04-18T19:51:42.207Z,9.43
2023-04-18T19:54:08.889Z,8.98
2023-04-18T19:56:35.672Z,8.09
2023-04-18T19:59:02.469Z,8.79
2023-04-18T20:01:29.269Z,8.80
2023-04-18T20:03:58.655Z,8.82
2023-04-18T20:06:26.818Z,8.48
2023-04-18T20:08:53.701Z,8.62
2023-04-18T20:11:20.462Z,7.29
2023-04-18T20:13:47.157Z,8.68
2023-04-18T20:16:13.964Z,8.27
2023-04-18T20:18:41.723Z,8.60
2023-04-18T20:21:09.830Z,8.54
2023-04-18T20:23:37.068Z,8.51
2023-04-18T20:26:04.392Z,8.51
2023-04-18T20:28:31.742Z,8.45
2023-04-18T20:30:58.918Z,7.18
2023-04-18T20:33:25.744Z,8.09
2023-04-18T20:35:54.702Z,8.15
2023-04-18T20:38:26.010Z,6.48
2023-04-18T20:40:54.293Z,6.69
2023-04-18T20:43:21.481Z,7.99
2023-04-18T20:45:51.067Z,8.10
2023-04-18T20:48:18.308Z,8.07
2023-04-18T20:50:50.811Z,7.73
2023-04-18T20:53:21.065Z,7.64
2023-04-18T20:55:48.710Z,6.58
2023-04-18T20:58:15.773Z,7.82
2023-04-18T21:00:43.727Z,8.13
2023-04-18T21:03:13.087Z,8.22
2023-04-18T21:05:40.192Z,8.18
2023-04-18T21:08:06.926Z,7.59
2023-04-18T21:10:34.003Z,8.28
2023-04-18T21:13:00.968Z,8.02
2023-04-18T21:15:27.701Z,7.98
2023-04-18T21:17:54.393Z,7.57
2023-04-18T21:20:21.449Z,8.08
2023-04-18T21:22:48.091Z,8.06
2023-04-18T21:25:14.766Z,7.35
2023-04-18T21:27:41.470Z,7.81
2023-04-18T21:30:08.435Z,7.00
2023-04-18T21:32:35.106Z,6.50
2023-04-18T21:35:02.522Z,5.42
2023-04-18T21:37:31.524Z,7.14
2023-04-18T21:39:58.232Z,6.74
2023-04-18T21:42:24.946Z,6.28
2023-04-18T21:44:51.638Z,5.43
2023-04-18T21:47:18.408Z,7.00
2023-04-18T21:49:45.076Z,6.83
2023-04-18T21:52:11.675Z,5.01
2023-04-18T21:54:39.816Z,4.24
2023-04-18T21:57:06.734Z,5.87
2023-04-18T21:59:33.412Z,5.97
2023-04-18T22:02:00.199Z,4.74
2023-04-18T22:04:27.709Z,5.69
2023-04-18T22:06:54.739Z,6.36
2023-04-18T22:09:22.393Z,6.17
2023-04-18T22:11:51.111Z,5.72
2023-04-18T22:14:20.006Z,6.04
2023-04-18T22:16:46.707Z,6.16
2023-04-18T22:19:14.119Z,6.00
2023-04-18T22:21:40.795Z,5.81
2023-04-18T22:24:08.404Z,6.09
2023-04-18T22:26:35.065Z,6.52
2023-04-18T22:29:01.783Z,6.14
2023-04-18T22:31:28.692Z,5.13
2023-04-18T22:33:55.706Z,5.76
2023-04-18T22:36:22.333Z,5.24
2023-04-18T22:38:49.043Z,5.26
2023-04-18T22:41:15.798Z,5.67
2023-04-18T22:43:42.588Z,2.90
2023-04-18T22:46:09.344Z,5.99
2023-04-18T22:48:36.164Z,6.27
2023-04-18T22:51:03.331Z,5.95
2023-04-18T22:53:30.029Z,5.01
2023-04-18T22:55:57.091Z,5.63
2023-04-18T22:58:23.795Z,5.67
2023-04-18T23:00:50.630Z,5.67
2023-04-18T23:03:17.445Z,5.83
2023-04-18T23:05:44.139Z,6.21
2023-04-18T23:08:11.921Z,6.10
2023-04-18T23:10:39.054Z,-0.85
2023-04-18T23:13:05.757Z,6.19
2023-04-18T23:15:32.658Z,6.20
2023-04-18T23:17:59.509Z,6.14
2023-04-18T23:20:26.233Z,6.24
2023-04-18T23:22:53.672Z,5.87
2023-04-18T23:25:20.984Z,6.29
2023-04-18T23:27:47.942Z,6.24
2023-04-18T23:30:14.790Z,5.71
2023-04-18T23:32:41.642Z,6.05
2023-04-18T23:35:08.834Z,6.22
2023-04-18T23:37:35.542Z,6.17
2023-04-18T23:40:04.148Z,4.86
2023-04-18T23:42:34.635Z,5.31
2023-04-18T23:45:01.573Z,5.43
2023-04-18T23:47:28.303Z,5.54
2023-04-18T23:49:55.111Z,5.64
2023-04-18T23:52:22.192Z,5.08
2023-04-18T23:54:48.851Z,5.30
2023-04-18T23:57:16.089Z,6.03
2023-04-18T23:59:42.840Z,6.02
